N600WB MYAM-KMIA
Flight info
| Callsign | N600WB |
|---|---|
| Flight time | N/A |
| Altitude | 15998 |
| Route | REPEE BNFSH3 |
| Aircraft | E35L/M-SDFGIRWXY/SB1 |
Departure
| Time | 2026-04-29 14:20 |
|---|---|
| Airport | Leonard M. Thompson International Airport (MYAM) |
Arrival
| Time | N/A |
|---|---|
| Airport | Miami International Airport (KMIA) |
| Time | Latitude | Longitude | Altitude | Speed | Heading |
|---|---|---|---|---|---|
| 2026-04-29 14:07 | 26.51346 | -77.08696 | 18 ft | 0 kts | 184° |
| 2026-04-29 14:15 | 26.51338 | -77.08696 | 18 ft | 3 kts | 180° |
| 2026-04-29 14:16 | 26.51296 | -77.08690 | 17 ft | 8 kts | 157° |
| 2026-04-29 14:16 | 26.51282 | -77.08611 | 15 ft | 10 kts | 89° |
| 2026-04-29 14:16 | 26.51285 | -77.08521 | 14 ft | 13 kts | 87° |
| 2026-04-29 14:16 | 26.51257 | -77.08429 | 15 ft | 11 kts | 152° |
| 2026-04-29 14:17 | 26.51171 | -77.08421 | 16 ft | 12 kts | 179° |
| 2026-04-29 14:17 | 26.51138 | -77.08464 | 16 ft | 9 kts | 269° |
| 2026-04-29 14:17 | 26.51137 | -77.08559 | 15 ft | 15 kts | 269° |
| 2026-04-29 14:17 | 26.51133 | -77.08704 | 14 ft | 21 kts | 267° |
| 2026-04-29 14:18 | 26.51127 | -77.08887 | 11 ft | 25 kts | 269° |
| 2026-04-29 14:18 | 26.51121 | -77.09101 | 9 ft | 28 kts | 269° |
| 2026-04-29 14:18 | 26.51119 | -77.09290 | 10 ft | 19 kts | 267° |
| 2026-04-29 14:18 | 26.51114 | -77.09414 | 12 ft | 13 kts | 269° |
| 2026-04-29 14:19 | 26.51078 | -77.09477 | 13 ft | 8 kts | 189° |
| 2026-04-29 14:19 | 26.51014 | -77.09470 | 11 ft | 10 kts | 169° |
| 2026-04-29 14:19 | 26.50990 | -77.09426 | 9 ft | 5 kts | 88° |
| 2026-04-29 14:19 | 26.50995 | -77.09237 | 8 ft | 62 kts | 89° |
| 2026-04-29 14:20 | 26.51016 | -77.08427 | 26 ft | 138 kts | 90° |
| 2026-04-29 14:20 | 26.51040 | -77.07258 | 509 ft | 163 kts | 89° |
| 2026-04-29 14:20 | 26.51090 | -77.05877 | 1116 ft | 195 kts | 89° |
| 2026-04-29 14:20 | 26.51188 | -77.04291 | 1905 ft | 217 kts | 75° |
| 2026-04-29 14:21 | 26.52009 | -77.02882 | 2778 ft | 225 kts | 37° |
| 2026-04-29 14:21 | 26.53455 | -77.02322 | 3653 ft | 227 kts | 0° |
| 2026-04-29 14:21 | 26.54937 | -77.02866 | 4525 ft | 229 kts | 322° |
| 2026-04-29 14:21 | 26.55900 | -77.04250 | 5393 ft | 230 kts | 301° |
| 2026-04-29 14:22 | 26.56521 | -77.05902 | 6273 ft | 231 kts | 282° |
| 2026-04-29 14:22 | 26.56723 | -77.07758 | 6627 ft | 260 kts | 274° |
| 2026-04-29 14:22 | 26.56782 | -77.09862 | 7362 ft | 279 kts | 272° |
| 2026-04-29 14:22 | 26.56807 | -77.12000 | 8540 ft | 279 kts | 272° |
| 2026-04-29 14:23 | 26.56823 | -77.14179 | 9465 ft | 288 kts | 273° |
| 2026-04-29 14:23 | 26.56838 | -77.16433 | 10355 ft | 298 kts | 272° |
| 2026-04-29 14:23 | 26.56852 | -77.18774 | 11314 ft | 305 kts | 272° |
| 2026-04-29 14:23 | 26.56866 | -77.21167 | 12246 ft | 312 kts | 272° |
| 2026-04-29 14:24 | 26.56880 | -77.23594 | 13107 ft | 320 kts | 273° |
| 2026-04-29 14:24 | 26.56893 | -77.26098 | 13950 ft | 329 kts | 273° |
| 2026-04-29 14:24 | 26.56906 | -77.28669 | 14810 ft | 335 kts | 273° |
| 2026-04-29 14:24 | 26.56920 | -77.31224 | 15658 ft | 341 kts | 273° |
| 2026-04-29 14:25 | 26.56934 | -77.33908 | 15966 ft | 364 kts | 272° |
| 2026-04-29 14:25 | 26.56947 | -77.36826 | 15988 ft | 387 kts | 272° |
| 2026-04-29 14:25 | 26.56961 | -77.39927 | 15992 ft | 404 kts | 272° |
| 2026-04-29 14:25 | 26.56974 | -77.43029 | 15978 ft | 399 kts | 272° |
| 2026-04-29 14:26 | 26.56986 | -77.46116 | 15977 ft | 395 kts | 273° |
| 2026-04-29 14:26 | 26.56998 | -77.49149 | 15978 ft | 392 kts | 272° |
| 2026-04-29 14:26 | 26.57009 | -77.52222 | 15976 ft | 390 kts | 272° |
| 2026-04-29 14:26 | 26.57020 | -77.55214 | 15980 ft | 388 kts | 273° |
| 2026-04-29 14:27 | 26.57030 | -77.58254 | 15980 ft | 387 kts | 273° |
| 2026-04-29 14:27 | 26.57039 | -77.61266 | 15982 ft | 387 kts | 273° |
| 2026-04-29 14:27 | 26.57048 | -77.64270 | 15978 ft | 387 kts | 273° |
| 2026-04-29 14:28 | 26.57063 | -77.70221 | 15981 ft | 388 kts | 273° |
| 2026-04-29 14:28 | 26.57070 | -77.73247 | 15982 ft | 389 kts | 272° |
| 2026-04-29 14:28 | 26.57076 | -77.76266 | 15983 ft | 389 kts | 272° |
| 2026-04-29 14:28 | 26.57082 | -77.79247 | 15979 ft | 389 kts | 272° |
| 2026-04-29 14:29 | 26.57086 | -77.82261 | 15981 ft | 389 kts | 272° |
| 2026-04-29 14:29 | 26.57090 | -77.85271 | 15979 ft | 389 kts | 273° |
| 2026-04-29 14:29 | 26.57094 | -77.88309 | 15978 ft | 389 kts | 272° |
| 2026-04-29 14:29 | 26.57096 | -77.91316 | 15982 ft | 389 kts | 273° |
| 2026-04-29 14:30 | 26.57098 | -77.94320 | 15981 ft | 389 kts | 273° |
| 2026-04-29 14:30 | 26.57100 | -77.97345 | 15979 ft | 389 kts | 273° |
| 2026-04-29 14:30 | 26.57100 | -78.00365 | 15978 ft | 389 kts | 273° |
| 2026-04-29 14:30 | 26.57101 | -78.03397 | 15980 ft | 389 kts | 273° |
| 2026-04-29 14:31 | 26.57101 | -78.06418 | 15978 ft | 389 kts | 273° |
| 2026-04-29 14:31 | 26.57099 | -78.09414 | 15978 ft | 389 kts | 273° |
| 2026-04-29 14:31 | 26.57098 | -78.12435 | 15973 ft | 389 kts | 273° |
| 2026-04-29 14:31 | 26.57096 | -78.15468 | 15977 ft | 389 kts | 273° |
| 2026-04-29 14:32 | 26.57092 | -78.18471 | 15980 ft | 389 kts | 273° |
| 2026-04-29 14:32 | 26.57089 | -78.21492 | 15978 ft | 389 kts | 273° |
| 2026-04-29 14:32 | 26.57085 | -78.24516 | 15976 ft | 389 kts | 273° |
| 2026-04-29 14:32 | 26.57080 | -78.27534 | 15967 ft | 389 kts | 273° |
| 2026-04-29 14:33 | 26.57074 | -78.30571 | 15981 ft | 389 kts | 273° |
| 2026-04-29 14:33 | 26.57068 | -78.33582 | 15969 ft | 389 kts | 273° |
| 2026-04-29 14:33 | 26.57061 | -78.36620 | 15973 ft | 388 kts | 273° |
| 2026-04-29 14:33 | 26.57054 | -78.39642 | 15979 ft | 389 kts | 273° |
| 2026-04-29 14:34 | 26.57039 | -78.42637 | 15966 ft | 389 kts | 272° |
| 2026-04-29 14:34 | 26.56891 | -78.45673 | 15969 ft | 389 kts | 270° |
| 2026-04-29 14:34 | 26.56737 | -78.48692 | 15978 ft | 389 kts | 270° |
| 2026-04-29 14:34 | 26.56585 | -78.51712 | 15979 ft | 388 kts | 270° |
| 2026-04-29 14:35 | 26.56433 | -78.54713 | 15990 ft | 389 kts | 270° |
| 2026-04-29 14:35 | 26.56283 | -78.57696 | 15978 ft | 388 kts | 270° |
| 2026-04-29 14:35 | 26.56131 | -78.60689 | 15995 ft | 388 kts | 270° |
| 2026-04-29 14:35 | 26.55978 | -78.63695 | 15993 ft | 388 kts | 270° |
| 2026-04-29 14:36 | 26.55826 | -78.66664 | 15994 ft | 389 kts | 270° |
| 2026-04-29 14:36 | 26.55673 | -78.69631 | 15994 ft | 389 kts | 270° |
| 2026-04-29 14:36 | 26.55557 | -78.71899 | 15998 ft | 389 kts | 270° |
| 2026-04-29 14:36 | 26.55458 | -78.73804 | 15996 ft | 389 kts | 270° |
| 2026-04-29 14:37 | 26.55286 | -78.77121 | 15997 ft | 389 kts | 270° |
| 2026-04-29 14:37 | 26.55152 | -78.79694 | 15995 ft | 389 kts | 270° |
| 2026-04-29 14:37 | 26.54945 | -78.83646 | 16018 ft | 390 kts | 270° |
| 2026-04-29 14:37 | 26.54805 | -78.86316 | 15974 ft | 391 kts | 270° |
| 2026-04-29 14:38 | 26.54745 | -78.87450 | 15977 ft | 390 kts | 270° |
| 2026-04-29 14:38 | 26.54693 | -78.88431 | 15983 ft | 390 kts | 269° |